Time;durP1;ratioP1;P1;durP2;ratioP2;P2;SDS_P1;SDS_P2;PMS_P1;PMS_P2;Temp;Humidity;BMP_temperature;BMP_pressure;BME280_temperature;BME280_humidity;BME280_pressure;Samples;Min_cycle;Max_cycle;Signal;HPM_P1;HPM_P2
2023/01/12 00:04:26;;;;;;;2.05;1.15;;;;;;;-4.67;86.89;100820.78;10449888;28;20041;-77
2023/01/12 00:09:29;;;;;;;1.92;1.40;;;;;;;-4.66;86.80;100823.28;10446731;28;20407;-76
2023/01/12 00:14:35;;;;;;;0.55;0.55;;;;;;;-4.66;86.38;100812.59;10447692;28;20061;-77
2023/01/12 00:19:38;;;;;;;2.03;0.98;;;;;;;-4.64;86.72;100812.41;10448756;28;20056;-76
2023/01/12 00:24:43;;;;;;;1.48;1.15;;;;;;;-4.61;86.33;100799.50;10443201;28;20052;-76
2023/01/12 00:29:46;;;;;;;3.13;1.67;;;;;;;-4.60;86.34;100800.31;10459548;28;20068;-77
2023/01/12 00:34:52;;;;;;;2.13;1.70;;;;;;;-4.60;86.24;100795.78;10429281;28;20033;-77
2023/01/12 00:39:58;;;;;;;2.65;1.83;;;;;;;-4.67;86.35;100802.88;10447342;28;20057;-77
2023/01/12 00:50:21;;;;;;;1.63;1.35;;;;;;;-4.69;87.00;100793.34;10474202;28;20404;-76
2023/01/12 00:55:24;;;;;;;1.33;1.17;;;;;;;-4.69;86.70;100796.84;10427619;28;20038;-77
2023/01/12 01:00:31;;;;;;;2.00;1.67;;;;;;;-4.71;86.31;100790.84;10445689;28;20042;-76
2023/01/12 01:05:34;;;;;;;1.50;1.27;;;;;;;-4.71;86.39;100782.81;10414307;28;20527;-76
2023/01/12 01:10:36;;;;;;;1.80;1.42;;;;;;;-4.69;86.82;100777.28;10441560;28;20322;-75
2023/01/12 01:16:05;;;;;;;1.97;1.57;;;;;;;-4.72;86.78;100780.31;10444226;28;20046;-75
2023/01/12 01:21:09;;;;;;;2.72;1.35;;;;;;;-4.72;86.82;100774.97;10443973;28;20046;-75
2023/01/12 01:26:17;;;;;;;1.77;1.50;;;;;;;-4.75;87.01;100761.94;10444077;28;20450;-76
2023/01/12 01:31:21;;;;;;;1.60;1.40;;;;;;;-4.76;86.97;100752.25;10425497;28;20511;-76
2023/01/12 01:36:24;;;;;;;1.05;0.93;;;;;;;-4.76;87.09;100769.13;10443772;28;20037;-77
2023/01/12 01:41:29;;;;;;;2.80;1.50;;;;;;;-4.74;87.40;100774.31;10441963;28;20060;-75
2023/01/12 01:47:05;;;;;;;4.20;2.40;;;;;;;-4.74;86.95;100743.03;10426784;28;20080;-75
2023/01/12 01:52:14;;;;;;;2.58;1.95;;;;;;;-4.80;87.21;100742.91;10416518;28;20049;-76
2023/01/12 01:57:17;;;;;;;1.35;0.98;;;;;;;-4.81;87.30;100742.09;10427798;28;20403;-75
2023/01/12 02:02:19;;;;;;;4.18;2.88;;;;;;;-4.80;87.20;100742.91;10442912;28;20053;-79
2023/01/12 02:07:21;;;;;;;1.83;1.48;;;;;;;-4.79;86.75;100724.00;10426818;28;20041;-79
2023/01/12 02:18:01;;;;;;;5.25;2.97;;;;;;;-4.76;86.51;100718.28;10388309;28;20050;-78
2023/01/12 02:23:09;;;;;;;5.85;3.67;;;;;;;-4.73;86.23;100722.44;10441349;28;20511;-78
2023/01/12 02:28:30;;;;;;;4.63;2.63;;;;;;;-4.70;86.21;100717.56;10390622;28;20042;-78
2023/01/12 02:33:52;;;;;;;4.95;2.58;;;;;;;-4.71;86.35;100690.97;10442553;28;20701;-78
2023/01/12 02:39:18;;;;;;;4.55;2.40;;;;;;;-4.74;86.46;100704.72;10426189;28;20073;-79
2023/01/12 02:44:35;;;;;;;6.30;3.05;;;;;;;-4.76;86.22;100707.56;10442552;28;20041;-78
2023/01/12 02:49:44;;;;;;;5.40;2.70;;;;;;;-4.75;85.84;100692.34;10427081;28;20416;-77
2023/01/12 02:54:47;;;;;;;6.38;2.97;;;;;;;-4.78;86.40;100704.25;10441326;28;20505;-79
2023/01/12 02:59:49;;;;;;;5.38;2.08;;;;;;;-4.80;86.01;100692.06;10442278;28;20056;-80
2023/01/12 03:04:52;;;;;;;4.65;3.25;;;;;;;-4.82;85.96;100696.75;10427395;28;20062;-79
2023/01/12 03:10:15;;;;;;;6.30;3.10;;;;;;;-4.87;86.43;100684.72;10425971;28;20049;-80
2023/01/12 03:15:18;;;;;;;4.35;2.88;;;;;;;-4.86;86.51;100680.22;10443086;28;20063;-78
2023/01/12 03:20:24;;;;;;;4.55;2.90;;;;;;;-4.83;86.71;100669.16;10425951;28;20045;-78
2023/01/12 03:25:27;;;;;;;4.68;2.80;;;;;;;-4.81;86.53;100671.66;10448606;28;20058;-76
2023/01/12 03:30:35;;;;;;;5.40;3.10;;;;;;;-4.85;86.45;100673.88;10448831;28;20056;-76
2023/01/12 03:35:42;;;;;;;3.63;2.80;;;;;;;-4.90;86.53;100668.22;10449357;28;20053;-78
2023/01/12 03:40:48;;;;;;;6.25;2.78;;;;;;;-4.95;86.66;100651.88;10431975;28;20050;-77
2023/01/12 03:45:55;;;;;;;6.40;2.80;;;;;;;-4.96;86.68;100647.53;10409010;28;20061;-77
2023/01/12 03:51:18;;;;;;;5.78;2.53;;;;;;;-4.96;86.72;100626.97;10404951;28;20029;-76
2023/01/12 03:56:22;;;;;;;2.05;1.38;;;;;;;-4.99;87.06;100637.19;10389700;28;20057;-74
2023/01/12 04:01:25;;;;;;;3.53;2.60;;;;;;;-4.97;86.94;100629.81;10404870;28;20045;-76
2023/01/12 04:06:27;;;;;;;4.80;2.38;;;;;;;-5.00;86.60;100633.69;10406236;28;20058;-76
2023/01/12 04:16:51;;;;;;;2.92;1.42;;;;;;;-5.01;87.06;100628.53;10394516;28;20057;-78
2023/01/12 04:27:15;;;;;;;3.80;2.17;;;;;;;-5.08;87.38;100622.22;10398870;28;20041;-77
2023/01/12 04:32:17;;;;;;;3.67;2.20;;;;;;;-5.05;87.55;100625.34;10376136;28;20038;-77
2023/01/12 04:37:20;;;;;;;3.72;1.52;;;;;;;-5.08;87.48;100608.84;10402157;28;20531;-77
2023/01/12 04:47:43;;;;;;;3.85;2.83;;;;;;;-5.07;87.76;100576.53;10401179;28;20034;-77
2023/01/12 04:52:45;;;;;;;5.05;2.50;;;;;;;-5.02;88.23;100568.00;10393307;28;20057;-77
2023/01/12 04:57:47;;;;;;;3.53;1.90;;;;;;;-5.06;88.41;100570.19;10373147;28;20042;-76
2023/01/12 05:02:52;;;;;;;2.72;1.50;;;;;;;-5.11;88.16;100572.56;10398732;28;20046;-75
2023/01/12 05:13:15;;;;;;;1.80;1.50;;;;;;;-5.10;88.73;100576.91;10404005;28;20049;-75
2023/01/12 05:18:18;;;;;;;5.75;2.30;;;;;;;-5.13;89.02;100584.47;10407147;28;20037;-77
2023/01/12 05:23:20;;;;;;;4.35;2.83;;;;;;;-5.11;89.04;100575.25;10403628;28;20061;-76
2023/01/12 05:28:22;;;;;;;5.65;2.92;;;;;;;-5.08;88.71;100563.34;10397083;28;20044;-76
2023/01/12 05:33:24;;;;;;;2.53;1.67;;;;;;;-5.05;89.55;100577.19;10396632;28;20409;-78
2023/01/12 05:38:28;;;;;;;7.20;3.08;;;;;;;-4.97;88.96;100563.75;10404031;28;20045;-78
2023/01/12 05:48:51;;;;;;;6.65;3.60;;;;;;;-4.99;89.41;100549.72;10444154;28;20539;-78
2023/01/12 05:53:54;;;;;;;5.80;3.22;;;;;;;-5.01;89.64;100550.94;10427240;28;20048;-78
2023/01/12 05:58:58;;;;;;;4.30;2.15;;;;;;;-5.04;90.32;100549.41;10444850;28;20045;-76
2023/01/12 06:04:01;;;;;;;2.28;1.80;;;;;;;-5.01;90.49;100550.94;10445404;28;20045;-77
2023/01/12 06:09:03;;;;;;;4.38;2.40;;;;;;;-4.96;90.57;100556.56;10445638;28;20049;-77
2023/01/12 06:14:06;;;;;;;1.98;1.13;;;;;;;-5.01;90.48;100556.28;10427746;28;20041;-78
2023/01/12 06:19:09;;;;;;;3.95;1.98;;;;;;;-4.94;90.86;100549.16;10443045;28;20056;-77
2023/01/12 06:24:12;;;;;;;3.35;1.92;;;;;;;-4.95;90.41;100542.16;10441369;28;20049;-78
2023/01/12 06:29:14;;;;;;;4.82;2.75;;;;;;;-4.90;90.67;100555.81;10426704;28;20044;-78
2023/01/12 06:34:16;;;;;;;3.45;2.03;;;;;;;-4.93;90.78;100546.31;10425280;28;20050;-78
2023/01/12 06:39:18;;;;;;;2.25;1.45;;;;;;;-4.93;91.40;100564.22;10443558;28;20054;-78
2023/01/12 06:44:20;;;;;;;3.35;2.25;;;;;;;-4.99;91.47;100552.41;10443872;28;20037;-79
2023/01/12 06:49:22;;;;;;;3.58;2.15;;;;;;;-5.00;92.11;100542.72;10443526;28;20034;-78
2023/01/12 06:54:25;;;;;;;6.88;2.85;;;;;;;-4.97;92.25;100531.66;10442382;28;20072;-78
2023/01/12 06:59:27;;;;;;;4.20;2.13;;;;;;;-4.95;92.83;100529.63;10443364;28;20041;-79
2023/01/12 07:04:29;;;;;;;6.53;4.00;;;;;;;-4.98;93.15;100532.66;10443644;28;20045;-78
2023/01/12 07:09:31;;;;;;;5.75;3.63;;;;;;;-4.96;93.43;100524.44;10442028;28;20511;-79
2023/01/12 07:14:33;;;;;;;4.22;2.55;;;;;;;-4.97;93.99;100506.72;10443184;28;20045;-78
2023/01/12 07:19:37;;;;;;;1.95;1.75;;;;;;;-4.96;93.63;100516.41;10443441;28;20041;-78
2023/01/12 07:24:39;;;;;;;3.38;1.77;;;;;;;-4.95;93.68;100520.75;10442536;28;20065;-78
2023/01/12 07:29:41;;;;;;;2.97;2.53;;;;;;;-4.96;93.99;100511.06;10443243;28;20049;-78
2023/01/12 07:34:44;;;;;;;6.25;2.15;;;;;;;-4.96;94.58;100513.75;10408955;28;20057;-78
2023/01/12 07:39:46;;;;;;;3.85;2.92;;;;;;;-4.95;94.28;100510.88;10442758;28;20508;-79
2023/01/12 07:44:48;;;;;;;4.07;2.47;;;;;;;-4.92;94.71;100512.34;10442444;28;20590;-78
2023/01/12 07:49:55;;;;;;;5.65;3.15;;;;;;;-4.91;94.40;100517.53;10440617;28;20053;-78
2023/01/12 07:54:58;;;;;;;3.35;1.35;;;;;;;-4.89;94.80;100504.78;10424348;28;20522;-78
2023/01/12 08:00:01;;;;;;;6.47;2.63;;;;;;;-4.90;94.66;100507.66;10457486;28;20421;-78
2023/01/12 08:05:04;;;;;;;1.08;1.05;;;;;;;-4.91;95.10;100493.44;10411728;28;20504;-77
2023/01/12 08:10:07;;;;;;;3.22;2.03;;;;;;;-4.89;95.30;100503.94;10408308;28;20045;-77
2023/01/12 08:15:10;;;;;;;4.85;2.72;;;;;;;-4.89;95.57;100501.28;10401930;28;20048;-78
2023/01/12 08:20:22;;;;;;;3.97;2.33;;;;;;;-4.89;95.33;100496.75;10447347;28;20064;-77
2023/01/12 08:25:29;;;;;;;3.60;2.53;;;;;;;-4.88;96.31;100494.91;10446007;28;20045;-78
2023/01/12 08:30:32;;;;;;;2.83;1.93;;;;;;;-4.91;96.47;100503.31;10432102;28;20225;-78
2023/01/12 08:35:34;;;;;;;5.35;3.13;;;;;;;-4.95;95.99;100504.69;10431502;28;20041;-77
2023/01/12 08:46:06;;;;;;;1.85;1.25;;;;;;;-4.97;97.30;100496.03;10449087;28;20049;-78
2023/01/12 08:51:12;;;;;;;7.28;3.75;;;;;;;-4.95;97.92;100465.41;10447790;28;20500;-78
2023/01/12 08:56:15;;;;;;;3.05;2.20;;;;;;;-4.95;97.48;100491.31;10428236;28;20041;-77
2023/01/12 09:01:19;;;;;;;3.88;2.90;;;;;;;-4.92;97.35;100494.44;10447770;28;20038;-78
2023/01/12 09:06:24;;;;;;;3.40;2.75;;;;;;;-4.87;97.36;100494.72;10429809;28;20045;-78
2023/01/12 09:11:31;;;;;;;2.53;2.10;;;;;;;-4.83;97.06;100489.84;10447394;28;20519;-77
2023/01/12 09:16:37;;;;;;;6.72;3.47;;;;;;;-4.79;96.96;100482.28;10443447;28;20049;-77
2023/01/12 09:21:40;;;;;;;7.50;2.80;;;;;;;-4.81;96.58;100478.97;10446685;28;20056;-79
2023/01/12 09:26:44;;;;;;;10.55;3.28;;;;;;;-4.79;95.98;100464.38;10426766;28;20049;-78
2023/01/12 09:31:46;;;;;;;4.18;2.45;;;;;;;-4.76;96.31;100465.84;10446751;28;20045;-78
2023/01/12 09:36:51;;;;;;;3.80;1.70;;;;;;;-4.78;95.86;100458.00;10447059;28;20045;-78
2023/01/12 09:47:16;;;;;;;8.77;2.83;;;;;;;-4.76;95.71;100460.50;10446278;28;20424;-78
2023/01/12 09:52:36;;;;;;;5.40;2.60;;;;;;;-4.77;96.06;100461.50;10435660;28;20046;-78
2023/01/12 09:57:41;;;;;;;6.05;2.50;;;;;;;-4.76;95.71;100439.91;10387265;28;20049;-78
2023/01/12 10:02:50;;;;;;;4.80;3.10;;;;;;;-4.72;96.17;100435.84;10441500;28;20041;-78
2023/01/12 10:07:54;;;;;;;4.95;3.35;;;;;;;-4.70;96.19;100431.13;10427090;28;20037;-79
2023/01/12 10:12:59;;;;;;;2.72;2.05;;;;;;;-4.69;96.26;100430.09;10444158;28;20033;-78
2023/01/12 10:18:15;;;;;;;7.88;2.17;;;;;;;-4.76;96.50;100426.53;10443566;28;20530;-77
2023/01/12 10:23:23;;;;;;;10.20;3.80;;;;;;;-4.73;96.08;100423.47;10443745;28;20041;-78
2023/01/12 10:28:33;;;;;;;4.65;3.78;;;;;;;-4.73;96.12;100415.44;10430540;28;20060;-77
2023/01/12 10:33:35;;;;;;;5.15;2.55;;;;;;;-4.79;96.31;100416.19;10431577;28;20046;-74
2023/01/12 10:38:52;;;;;;;2.70;1.98;;;;;;;-4.75;95.99;100406.78;10429614;28;20048;-75
2023/01/12 10:43:57;;;;;;;4.55;2.70;;;;;;;-4.71;95.84;100393.84;10400676;28;20046;-76
2023/01/12 10:49:18;;;;;;;3.03;1.98;;;;;;;-4.71;96.38;100394.66;10403880;28;20037;-77
2023/01/12 10:54:30;;;;;;;4.43;2.53;;;;;;;-4.67;96.52;100401.31;10437197;28;20049;-77
2023/01/12 10:59:34;;;;;;;3.00;2.42;;;;;;;-4.68;96.82;100402.34;10423015;28;20136;-77
2023/01/12 11:04:45;;;;;;;2.10;1.30;;;;;;;-4.64;96.31;100402.78;10415056;28;20384;-75
2023/01/12 11:09:48;;;;;;;2.10;1.45;;;;;;;-4.66;96.82;100400.31;10414278;28;20147;-76
2023/01/12 11:15:02;;;;;;;5.90;2.97;;;;;;;-4.66;97.15;100392.28;10437713;28;20381;-76
2023/01/12 11:20:15;;;;;;;9.23;2.85;;;;;;;-4.61;96.88;100367.59;10432257;28;20594;-77
2023/01/12 11:25:22;;;;;;;6.88;3.33;;;;;;;-4.61;96.54;100368.44;10433317;28;20050;-77
2023/01/12 11:30:30;;;;;;;1.67;1.23;;;;;;;-4.56;96.44;100374.03;10405197;28;20037;-84
2023/01/12 11:35:40;;;;;;;4.30;2.92;;;;;;;-4.56;96.49;100370.53;10402931;28;20048;-76
2023/01/12 11:40:44;;;;;;;6.38;3.17;;;;;;;-4.56;96.60;100368.69;10420635;28;20057;-76
2023/01/12 11:45:57;;;;;;;7.32;3.40;;;;;;;-4.53;96.50;100380.03;10465314;28;20056;-76
2023/01/12 11:51:00;;;;;;;2.92;2.00;;;;;;;-4.53;95.83;100363.97;10426412;28;20037;-76
2023/01/12 11:56:30;;;;;;;4.05;2.33;;;;;;;-4.53;95.48;100362.13;10441989;28;20053;-77
2023/01/12 12:01:41;;;;;;;3.42;2.00;;;;;;;-4.49;94.88;100357.25;10422029;28;20041;-77
2023/01/12 12:07:15;;;;;;;5.30;2.90;;;;;;;-4.51;95.30;100332.47;10393708;28;20049;-76
2023/01/12 12:12:44;;;;;;;2.65;1.73;;;;;;;-4.51;95.02;100332.47;10427141;28;20041;-76
2023/01/12 12:18:19;;;;;;;6.50;2.83;;;;;;;-4.50;94.84;100331.47;10417159;28;20049;-77
2023/01/12 12:23:31;;;;;;;4.35;2.45;;;;;;;-4.45;94.67;100343.28;10449042;28;20044;-78
2023/01/12 12:28:47;;;;;;;2.33;1.40;;;;;;;-4.46;94.08;100328.22;10396545;28;20501;-77
2023/01/12 12:34:08;;;;;;;2.05;1.70;;;;;;;-4.44;94.33;100330.72;10436606;28;20056;-74
2023/01/12 12:39:14;;;;;;;4.35;2.75;;;;;;;-4.41;93.59;100327.66;10450993;28;20045;-77
2023/01/12 12:49:58;;;;;;;6.65;3.25;;;;;;;-4.36;92.39;100334.06;10397252;28;20045;-74
2023/01/12 12:55:05;;;;;;;3.90;2.17;;;;;;;-4.35;91.75;100316.16;10455519;28;20152;-76
2023/01/12 13:00:41;;;;;;;4.50;2.55;;;;;;;-4.31;91.64;100328.16;10418393;28;20057;-76
2023/01/12 13:05:46;;;;;;;6.07;3.15;;;;;;;-4.29;91.67;100326.13;10427027;28;20045;-79
2023/01/12 13:10:54;;;;;;;4.13;2.85;;;;;;;-4.23;91.21;100321.81;10424765;28;20034;-81
2023/01/12 13:16:08;;;;;;;8.20;2.75;;;;;;;-4.21;90.91;100331.31;10443423;28;20041;-80
2023/01/12 13:21:29;;;;;;;3.00;1.98;;;;;;;-4.19;90.77;100301.66;10444650;28;20037;-77
2023/01/12 13:26:31;;;;;;;4.50;2.75;;;;;;;-4.19;90.79;100315.06;10440379;28;20053;-77
2023/01/12 13:31:34;;;;;;;4.43;2.08;;;;;;;-4.19;90.29;100317.75;10444781;28;20044;-76
2023/01/12 13:36:38;;;;;;;2.97;1.80;;;;;;;-4.18;90.41;100325.56;10425998;28;20048;-79
2023/01/12 13:47:21;;;;;;;7.30;3.30;;;;;;;-4.12;90.33;100342.75;10441242;28;20041;-79
2023/01/12 13:52:31;;;;;;;3.75;2.38;;;;;;;-4.17;91.16;100327.22;10408387;28;20033;-79
2023/01/12 13:57:39;;;;;;;3.53;1.73;;;;;;;-4.26;92.04;100323.03;10417906;28;20044;-79
2023/01/12 14:02:47;;;;;;;5.90;2.95;;;;;;;-4.33;92.87;100328.34;10442772;28;20393;-77
2023/01/12 14:07:58;;;;;;;;;;;;;;;-4.37;93.87;100331.59;10423297;28;20042;-78
2023/01/12 14:13:06;;;;;;;5.00;2.55;;;;;;;-4.37;94.58;100331.59;10423238;28;19948;-78
2023/01/12 14:18:11;;;;;;;3.63;2.03;;;;;;;-4.40;95.17;100329.28;10447974;28;20037;-75
2023/01/12 14:23:26;;;;;;;3.75;2.20;;;;;;;-4.42;95.52;100331.34;10457465;28;20474;-80
2023/01/12 14:28:29;;;;;;;7.22;2.72;;;;;;;-4.45;95.67;100331.72;10421940;28;20038;-79
2023/01/12 14:33:33;;;;;;;5.40;3.35;;;;;;;-4.44;95.87;100310.13;10437331;28;20411;-77
2023/01/12 14:38:39;;;;;;;4.50;2.72;;;;;;;-4.44;96.31;100298.56;10415862;28;20384;-81
2023/01/12 14:49:27;;;;;;;4.55;3.40;;;;;;;-4.45;98.88;100321.84;10442907;28;20045;-85
2023/01/12 14:54:32;;;;;;;8.52;3.45;;;;;;;-4.45;99.89;100329.06;10434212;28;20056;-76
2023/01/12 14:59:43;;;;;;;2.50;1.58;;;;;;;-4.42;100.00;100334.03;10421528;28;20149;-79
2023/01/12 15:05:02;;;;;;;5.20;2.80;;;;;;;-4.39;100.00;100328.28;10425039;28;20038;-80
2023/01/12 15:10:07;;;;;;;6.65;3.15;;;;;;;-4.37;100.00;100327.06;10452000;28;20034;-78
2023/01/12 15:15:21;;;;;;;4.88;2.60;;;;;;;-4.35;100.00;100340.25;10447842;28;20499;-78
2023/01/12 15:25:47;;;;;;;7.05;3.88;;;;;;;-4.20;99.41;100337.50;10417457;28;20048;-81
2023/01/12 15:30:50;;;;;;;6.03;3.05;;;;;;;-4.15;99.07;100345.81;10450394;28;20041;-80
2023/01/12 15:35:52;;;;;;;5.15;2.97;;;;;;;-4.08;98.64;100335.97;10451783;28;20514;-80
2023/01/12 15:40:55;;;;;;;6.80;3.92;;;;;;;-4.01;97.59;100326.97;10447580;28;20042;-79
2023/01/12 15:45:57;;;;;;;7.32;3.70;;;;;;;-3.95;97.17;100325.38;10447601;28;20412;-82
2023/01/12 15:50:59;;;;;;;4.63;3.42;;;;;;;-3.87;96.93;100324.38;10452095;28;20064;-83
2023/01/12 15:56:02;;;;;;;4.30;2.42;;;;;;;-3.83;96.43;100325.66;10449806;28;20041;-78
2023/01/12 16:01:09;;;;;;;5.35;2.60;;;;;;;-3.77;96.04;100306.13;10432501;28;20049;-83
2023/01/12 16:06:11;;;;;;;5.78;3.80;;;;;;;-3.74;95.67;100301.19;10446879;28;20080;-81
2023/01/12 16:11:19;;;;;;;9.70;3.17;;;;;;;-3.69;95.40;100297.91;10449484;28;20049;-82
2023/01/12 16:16:22;;;;;;;8.13;3.95;;;;;;;-3.67;94.86;100290.50;10443356;28;20626;-82
2023/01/12 16:21:26;;;;;;;3.83;2.58;;;;;;;-3.62;95.01;100303.34;10441074;28;20053;-76
2023/01/12 16:26:32;;;;;;;3.95;2.42;;;;;;;-3.58;94.63;100312.63;10409617;28;20050;-77
2023/01/12 16:31:34;;;;;;;5.00;2.70;;;;;;;-3.56;94.29;100319.44;10443660;28;20037;-78
2023/01/12 16:36:37;;;;;;;4.85;2.88;;;;;;;-3.52;94.81;100299.25;10449267;28;20499;-80
2023/01/12 16:41:39;;;;;;;3.58;1.52;;;;;;;-3.46;94.14;100295.78;10445809;28;20056;-80
2023/01/12 16:46:41;;;;;;;2.60;1.98;;;;;;;-3.43;94.40;100295.41;10447809;28;20034;-82
2023/01/12 16:51:45;;;;;;;5.43;3.40;;;;;;;-3.41;94.28;100295.19;10434582;28;20084;-79
2023/01/12 16:56:47;;;;;;;8.45;2.55;;;;;;;-3.39;94.46;100291.28;10444416;28;20045;-81
2023/01/12 17:01:53;;;;;;;5.88;2.90;;;;;;;-3.38;94.39;100303.66;10447286;28;20041;-82
2023/01/12 17:06:56;;;;;;;4.25;3.05;;;;;;;-3.38;94.44;100292.94;10424387;28;20053;-79
2023/01/12 17:11:58;;;;;;;4.85;2.88;;;;;;;-3.34;94.71;100304.91;10441673;28;20041;-78
2023/01/12 17:17:04;;;;;;;6.32;4.07;;;;;;;-3.32;94.87;100299.34;10443351;28;20056;-80
2023/01/12 17:22:10;;;;;;;10.07;4.43;;;;;;;-3.34;95.04;100286.13;10420815;28;20464;-75
2023/01/12 17:27:12;;;;;;;14.35;3.92;;;;;;;-3.30;95.15;100304.50;10425944;28;20056;-75
2023/01/12 17:32:15;;;;;;;6.00;3.63;;;;;;;-3.28;95.49;100297.13;10427004;28;20056;-78
2023/01/12 17:37:18;;;;;;;4.13;3.20;;;;;;;-3.29;95.42;100300.84;10401894;28;20045;-80
2023/01/12 17:47:41;;;;;;;6.63;2.70;;;;;;;-3.31;95.04;100270.66;10440067;28;20045;-79
2023/01/12 17:52:43;;;;;;;3.95;2.08;;;;;;;-3.34;94.95;100261.16;10427458;28;20037;-83
2023/01/12 17:57:45;;;;;;;4.38;2.92;;;;;;;-3.35;95.09;100257.66;10445295;28;20045;-82
2023/01/12 18:02:48;;;;;;;1.67;1.42;;;;;;;-3.37;94.74;100262.41;10443737;28;20037;-78
2023/01/12 18:07:51;;;;;;;5.03;1.77;;;;;;;-3.39;94.64;100288.59;10435398;28;21729;-76
2023/01/12 18:12:53;;;;;;;6.40;3.65;;;;;;;-3.46;94.52;100293.13;10438982;28;20056;-77
2023/01/12 18:17:55;;;;;;;8.07;4.43;;;;;;;-3.45;94.20;100278.69;10428131;28;20427;-77
2023/01/12 18:22:59;;;;;;;5.57;2.70;;;;;;;-3.47;94.35;100270.00;10426647;28;20037;-77
2023/01/12 18:28:01;;;;;;;6.75;4.00;;;;;;;-3.49;94.31;100255.94;10425777;28;20046;-77
2023/01/12 18:33:04;;;;;;;4.32;3.33;;;;;;;-3.47;94.37;100258.41;10408875;28;20049;-76
2023/01/12 18:38:06;;;;;;;5.32;3.65;;;;;;;-3.46;94.61;100249.38;10437256;28;20056;-82
2023/01/12 18:43:09;;;;;;;6.22;3.40;;;;;;;-3.43;94.18;100240.91;10427526;28;20049;-80
2023/01/12 18:48:20;;;;;;;3.00;2.22;;;;;;;-3.42;94.21;100237.22;10424376;28;20038;-83
2023/01/12 18:53:28;;;;;;;4.10;1.95;;;;;;;-3.43;94.69;100255.16;10425054;28;20057;-84
2023/01/12 18:58:32;;;;;;;5.43;3.30;;;;;;;-3.40;94.53;100264.66;10431348;28;20047;-81
2023/01/12 19:03:35;;;;;;;4.18;2.45;;;;;;;-3.37;94.64;100248.16;10422620;28;20689;-80
2023/01/12 19:19:28;;;;;;;2.85;2.35;;;;;;;-3.33;95.04;100244.03;10445030;28;20041;-76
2023/01/12 19:29:56;;;;;;;1.90;1.77;;;;;;;-3.32;95.50;100226.91;10416283;28;20037;-77
2023/01/12 19:34:58;;;;;;;4.20;2.85;;;;;;;-3.34;95.13;100227.13;10418182;28;20447;-75
2023/01/12 19:40:14;;;;;;;4.93;2.70;;;;;;;-3.32;96.02;100232.28;10436608;28;20041;-74
2023/01/12 19:45:16;;;;;;;3.85;2.38;;;;;;;-3.31;96.08;100235.78;10440229;28;20060;-75
2023/01/12 19:50:19;;;;;;;6.57;3.05;;;;;;;-3.30;96.12;100226.72;10405423;28;20053;-74
2023/01/12 19:55:21;;;;;;;5.65;3.13;;;;;;;-3.29;96.22;100220.34;10421581;28;20053;-76
2023/01/12 20:00:24;;;;;;;4.35;2.65;;;;;;;-3.29;96.20;100214.97;10434292;28;20399;-77
2023/01/12 20:05:26;;;;;;;3.28;2.60;;;;;;;-3.28;96.39;100208.59;10442057;28;20058;-76
2023/01/12 20:10:29;;;;;;;5.40;3.55;;;;;;;-3.23;96.71;100211.47;10444409;28;20045;-76
2023/01/12 20:15:31;;;;;;;5.28;3.03;;;;;;;-3.22;96.74;100187.13;10445951;28;20492;-77
2023/01/12 20:20:33;;;;;;;9.32;2.95;;;;;;;-3.23;96.26;100211.47;10446047;28;20045;-78
2023/01/12 20:25:38;;;;;;;6.45;3.40;;;;;;;-3.26;96.84;100201.16;10443056;28;20045;-77
2023/01/12 20:30:41;;;;;;;5.63;3.38;;;;;;;-3.29;96.94;100214.97;10441685;28;20045;-77
2023/01/12 20:35:46;;;;;;;7.32;2.42;;;;;;;-3.28;96.87;100187.94;10435486;28;20042;-75
2023/01/12 20:40:48;;;;;;;2.80;1.60;;;;;;;-3.25;96.80;100166.06;10434779;28;20411;-74
2023/01/12 20:45:51;;;;;;;6.97;4.18;;;;;;;-3.25;96.80;100176.81;10442306;28;20037;-76
2023/01/12 20:50:54;;;;;;;7.97;3.03;;;;;;;-3.25;97.23;100175.97;10444243;28;20076;-75
2023/01/12 20:55:56;;;;;;;5.32;3.50;;;;;;;-3.25;97.23;100170.63;10399786;28;20064;-75
2023/01/12 21:00:59;;;;;;;4.57;2.50;;;;;;;-3.25;97.42;100163.38;10429251;28;20515;-75
2023/01/12 21:06:01;;;;;;;12.77;5.95;;;;;;;-3.26;97.22;100169.78;10445962;28;20045;-76
2023/01/12 21:11:04;;;;;;;11.18;6.13;;;;;;;-3.23;97.28;100160.50;10444448;28;20053;-82
2023/01/12 21:16:16;;;;;;;8.20;5.68;;;;;;;-3.25;97.04;100152.66;10428271;28;20037;-77
2023/01/12 21:21:18;;;;;;;10.35;4.88;;;;;;;-3.21;97.29;100142.34;10426037;28;20038;-79
2023/01/12 21:26:21;;;;;;;8.27;5.18;;;;;;;-3.21;97.44;100145.03;10441085;28;20037;-80
2023/01/12 21:31:23;;;;;;;10.32;5.70;;;;;;;-3.25;97.20;100144.59;10428308;28;20045;-78
2023/01/12 21:36:25;;;;;;;9.82;4.95;;;;;;;-3.28;96.98;100133.47;10443279;28;20052;-78
2023/01/12 21:41:27;;;;;;;8.93;4.88;;;;;;;-3.31;96.91;100134.66;10440939;28;20034;-80
2023/01/12 21:46:32;;;;;;;8.95;5.20;;;;;;;-3.34;96.96;100122.50;10457415;28;20049;-80
2023/01/12 21:51:34;;;;;;;10.40;5.60;;;;;;;-3.37;97.09;100112.19;10443411;28;20041;-81
2023/01/12 21:56:36;;;;;;;4.63;3.25;;;;;;;-3.41;96.83;100110.94;10445438;28;20045;-79
2023/01/12 22:01:39;;;;;;;9.15;5.75;;;;;;;-3.42;96.86;100108.47;10440992;28;20052;-79
2023/01/12 22:06:41;;;;;;;7.35;4.53;;;;;;;-3.42;97.18;100105.78;10445656;28;20050;-78
2023/01/12 22:11:43;;;;;;;9.68;6.30;;;;;;;-3.42;96.70;100113.81;10448021;28;20079;-79
2023/01/12 22:16:45;;;;;;;8.35;5.78;;;;;;;-3.45;96.90;100112.38;10444097;28;20056;-78
2023/01/12 22:21:48;;;;;;;11.55;6.75;;;;;;;-3.47;96.51;100103.72;10430183;28;20037;-80
2023/01/12 22:26:50;;;;;;;9.13;4.47;;;;;;;-3.47;96.81;100090.31;10436282;28;20068;-78
2023/01/12 22:31:53;;;;;;;9.23;5.28;;;;;;;-3.48;96.43;100091.31;10429424;28;20519;-80
2023/01/12 22:36:55;;;;;;;9.85;5.97;;;;;;;-3.49;97.26;100084.28;10441691;28;20041;-77
2023/01/12 22:41:57;;;;;;;10.73;5.53;;;;;;;-3.46;96.69;100075.88;10427331;28;20053;-75
2023/01/12 22:46:59;;;;;;;6.03;3.63;;;;;;;-3.46;96.98;100072.34;10438439;28;20037;-78
2023/01/12 22:52:01;;;;;;;11.15;5.35;;;;;;;-3.43;96.85;100059.34;10461344;28;20045;-78
2023/01/12 22:57:05;;;;;;;8.25;4.97;;;;;;;-3.41;96.70;100062.66;10435533;28;20037;-78
2023/01/12 23:02:58;;;;;;;9.45;4.43;;;;;;;-3.39;96.70;100057.91;10430684;28;20060;-77
2023/01/12 23:07:29;;;;;;;9.20;4.65;;;;;;;-3.37;96.62;100038.94;10411790;28;20042;-77
2023/01/12 23:12:32;;;;;;;8.77;5.47;;;;;;;-3.36;96.27;100054.00;10450699;28;20048;-76
2023/01/12 23:17:35;;;;;;;10.45;5.20;;;;;;;-3.36;96.08;100019.94;10423068;28;20515;-76
2023/01/12 23:22:38;;;;;;;5.22;3.08;;;;;;;-3.34;95.77;100033.16;10439443;28;20033;-78
2023/01/12 23:27:40;;;;;;;5.18;3.22;;;;;;;-3.35;95.87;100016.22;10411027;28;20091;-78
2023/01/12 23:32:42;;;;;;;9.35;5.45;;;;;;;-3.34;95.65;100003.63;10420583;28;20507;-77
2023/01/12 23:37:45;;;;;;;7.60;4.55;;;;;;;-3.35;95.47;99994.75;10442199;28;20038;-80
2023/01/12 23:42:47;;;;;;;8.65;5.15;;;;;;;-3.33;95.75;99989.19;10434637;28;20489;-79
2023/01/12 23:47:50;;;;;;;9.10;5.20;;;;;;;-3.29;95.70;99992.31;10447387;28;20053;-80
2023/01/12 23:52:53;;;;;;;9.02;4.88;;;;;;;-3.28;95.47;99989.41;10440310;28;20041;-77
2023/01/12 23:58:01;;;;;;;8.60;4.72;;;;;;;-3.26;95.90;99994.56;10443458;28;20042;-81
